Time;durP1;ratioP1;P1;durP2;ratioP2;P2;SDS_P1;SDS_P2;PMS_P1;PMS_P2;Temp;Humidity;BMP_temperature;BMP_pressure;BME280_temperature;BME280_humidity;BME280_pressure;Samples;Min_cycle;Max_cycle;Signal;HPM_P1;HPM_P2
2022/08/28 00:01:42;;;;;;;8.53;6.50;;;;;;;19.07;99.33;93926.31;4842422;29;20206;-96
2022/08/28 00:04:29;;;;;;;9.43;6.07;;;;;;;18.89;100.00;93918.50;4835790;29;20289;-96
2022/08/28 00:07:13;;;;;;;7.23;6.20;;;;;;;18.86;100.00;93931.16;4842315;29;20230;-96
2022/08/28 00:09:57;;;;;;;8.60;6.50;;;;;;;18.78;100.00;93910.22;4841599;29;20809;-96
2022/08/28 00:12:42;;;;;;;10.77;6.23;;;;;;;18.95;100.00;93915.16;4833058;29;20214;-95
2022/08/28 00:15:31;;;;;;;10.13;7.20;;;;;;;18.76;100.00;93915.81;4835368;29;20210;-95
2022/08/28 00:18:17;;;;;;;6.50;5.90;;;;;;;18.79;100.00;93915.25;4843423;29;20218;-94
2022/08/28 00:21:03;;;;;;;8.87;6.33;;;;;;;19.10;100.00;93922.16;4821605;29;20218;-96
2022/08/28 00:23:47;;;;;;;9.88;6.20;;;;;;;19.23;98.53;93909.88;4819265;29;20218;-95
2022/08/28 00:29:35;;;;;;;7.53;5.83;;;;;;;19.16;97.96;93903.22;4843179;29;20304;-95
2022/08/28 00:32:22;;;;;;;6.30;5.07;;;;;;;19.09;97.71;93889.44;4841375;29;20205;-96
2022/08/28 00:35:07;;;;;;;6.37;5.07;;;;;;;19.19;97.99;93912.56;4828364;29;20205;-96
2022/08/28 00:37:51;;;;;;;6.70;4.93;;;;;;;19.13;98.14;93895.28;4841570;29;20312;-96
2022/08/28 00:40:37;;;;;;;5.30;4.80;;;;;;;19.26;97.99;93908.56;4863963;29;20257;-96
2022/08/28 00:43:38;;;;;;;7.97;6.30;;;;;;;19.11;97.38;93892.38;4843297;29;20213;-96
2022/08/28 00:46:23;;;;;;;7.23;6.50;;;;;;;19.14;97.66;93896.72;4842188;29;20293;-96
2022/08/28 00:49:08;;;;;;;13.30;6.93;;;;;;;19.07;97.81;93892.22;4823563;29;20273;-94
2022/08/28 00:52:14;;;;;;;9.20;7.37;;;;;;;19.18;97.24;93903.31;4834083;29;20225;-96
2022/08/28 00:55:04;;;;;;;8.90;8.00;;;;;;;19.18;98.12;93899.75;4833358;29;20209;-96
2022/08/28 00:57:59;;;;;;;10.37;8.77;;;;;;;19.01;98.82;93884.16;4845620;29;20203;-96
2022/08/28 01:00:43;;;;;;;12.57;9.90;;;;;;;19.22;97.60;93894.22;4845254;29;20206;-96
2022/08/28 01:03:28;;;;;;;11.93;10.40;;;;;;;19.29;96.92;93902.31;4828776;29;20210;-96
2022/08/28 01:06:15;;;;;;;12.37;11.13;;;;;;;19.34;96.96;93897.50;4842352;29;20206;-96
2022/08/28 01:08:59;;;;;;;15.77;11.20;;;;;;;19.25;96.80;93885.13;4850101;29;20237;-96
2022/08/28 01:11:48;;;;;;;13.73;12.33;;;;;;;19.34;96.35;93886.16;4843904;29;20220;-96
2022/08/28 01:14:35;;;;;;;16.30;13.07;;;;;;;19.30;96.42;93888.84;4822531;29;20221;-96
2022/08/28 01:17:22;;;;;;;15.40;13.80;;;;;;;19.33;96.88;93890.38;4830419;29;20235;-96
2022/08/28 01:20:12;;;;;;;21.20;14.00;;;;;;;19.35;96.74;93893.31;4848520;29;20198;-96
2022/08/28 01:23:18;;;;;;;17.30;13.87;;;;;;;19.18;97.56;93896.91;4841906;29;20257;-96
2022/08/28 01:26:02;;;;;;;19.63;15.97;;;;;;;19.12;99.29;93896.66;4831155;29;20238;-96
2022/08/28 01:28:47;;;;;;;24.03;16.97;;;;;;;19.12;99.22;93893.81;4835372;29;20244;-96
2022/08/28 01:31:31;;;;;;;21.13;16.67;;;;;;;18.89;99.75;93881.56;4843268;29;20201;-96
2022/08/28 01:34:16;;;;;;;21.77;18.47;;;;;;;19.05;99.19;93883.59;4842662;29;20384;-96
2022/08/28 01:37:02;;;;;;;26.47;18.50;;;;;;;19.07;98.21;93880.84;4837195;29;20212;-96
2022/08/28 01:39:47;;;;;;;22.27;17.63;;;;;;;19.09;96.90;93872.41;4846830;29;20268;-96
2022/08/28 01:42:37;;;;;;;21.97;17.23;;;;;;;19.21;96.83;93884.97;4832177;29;20205;-96
2022/08/28 01:45:23;;;;;;;24.05;19.08;;;;;;;19.26;97.19;93885.84;4843056;29;20201;-96
2022/08/28 01:48:07;;;;;;;26.53;20.60;;;;;;;18.94;97.55;93880.38;4832930;29;20313;-96
2022/08/28 01:50:55;;;;;;;25.53;19.63;;;;;;;18.88;98.77;93877.31;4858864;29;20205;-96
2022/08/28 01:53:40;;;;;;;29.37;20.57;;;;;;;18.85;100.00;93883.53;4835916;29;20282;-96
2022/08/28 01:56:24;;;;;;;27.87;21.67;;;;;;;18.82;99.51;93885.56;4846857;29;20205;-96
2022/08/28 01:59:10;;;;;;;28.33;20.07;;;;;;;18.99;98.89;93869.91;4854791;29;20675;-96
2022/08/28 02:02:21;;;;;;;31.33;20.80;;;;;;;18.99;98.39;93869.91;4834041;29;20227;-96
2022/08/28 02:05:07;;;;;;;27.87;21.67;;;;;;;18.86;98.44;93874.38;4845594;29;20216;-96
2022/08/28 02:07:52;;;;;;;31.07;22.27;;;;;;;18.98;98.05;93869.16;4867373;29;20280;-96
2022/08/28 02:10:43;;;;;;;32.20;20.80;;;;;;;19.06;96.43;93874.44;4856649;29;20225;-96
2022/08/28 02:13:28;;;;;;;27.40;20.33;;;;;;;19.04;96.77;93865.84;4850300;29;20210;-96
2022/08/28 02:16:27;;;;;;;26.23;21.50;;;;;;;18.93;97.32;93876.06;4865714;29;20264;-96
2022/08/28 02:19:24;;;;;;;28.77;21.10;;;;;;;18.94;98.45;93869.03;4832221;29;20197;-96
2022/08/28 02:22:10;;;;;;;27.13;22.17;;;;;;;19.11;98.51;93887.41;4855458;29;20237;-96
2022/08/28 02:24:57;;;;;;;30.87;21.57;;;;;;;18.99;97.46;93870.63;4845720;29;20266;-96
2022/08/28 02:27:42;;;;;;;29.83;21.23;;;;;;;19.21;98.36;93884.22;4846495;29;20302;-96
2022/08/28 02:30:28;;;;;;;30.27;21.80;;;;;;;19.18;95.73;93871.34;4842656;29;20265;-96
2022/08/28 02:33:13;;;;;;;28.53;23.07;;;;;;;19.10;95.71;93862.50;4851327;29;20723;-96
2022/08/28 02:35:59;;;;;;;29.10;22.30;;;;;;;19.14;95.95;93868.31;4859801;29;20210;-96
2022/08/28 02:38:46;;;;;;;31.43;22.90;;;;;;;19.14;96.61;93879.69;4860997;29;20225;-96
2022/08/28 02:41:32;;;;;;;29.60;22.67;;;;;;;19.15;96.02;93893.25;4869038;29;20209;-96
2022/08/28 02:44:16;;;;;;;30.23;23.43;;;;;;;18.93;96.63;93861.16;4839961;29;20198;-96
2022/08/28 02:47:02;;;;;;;33.03;22.20;;;;;;;19.15;97.69;93884.00;4868949;29;20202;-96
2022/08/28 02:49:46;;;;;;;29.47;22.17;;;;;;;19.08;96.54;93870.94;4879587;29;20225;-96
2022/08/28 02:52:31;;;;;;;34.93;22.73;;;;;;;19.15;95.98;93884.00;4867765;29;20216;-96
2022/08/28 02:55:18;;;;;;;30.73;21.53;;;;;;;19.14;95.82;93879.69;4875336;29;20264;-96
2022/08/28 02:58:08;;;;;;;32.77;22.40;;;;;;;19.08;97.25;93887.97;4852002;29;20262;-96
2022/08/28 03:01:12;;;;;;;30.40;22.43;;;;;;;19.07;96.70;93869.50;4859540;29;20217;-96
2022/08/28 03:03:57;;;;;;;29.53;22.43;;;;;;;19.13;96.57;93883.94;4848660;29;20202;-96
2022/08/28 03:06:41;;;;;;;31.07;23.43;;;;;;;18.91;97.01;93869.56;4842012;29;20217;-96
2022/08/28 03:09:27;;;;;;;36.83;25.37;;;;;;;18.96;97.31;93866.25;4834022;29;20226;-96
2022/08/28 03:12:16;;;;;;;29.57;23.43;;;;;;;18.92;97.08;93868.94;4870877;29;20217;-96
2022/08/28 03:15:02;;;;;;;30.47;22.67;;;;;;;18.78;98.12;93862.69;4850345;29;20214;-96
2022/08/28 03:17:46;;;;;;;39.80;23.87;;;;;;;18.92;97.76;93866.09;4867430;29;20659;-96
2022/08/28 03:20:31;;;;;;;34.50;23.67;;;;;;;18.93;97.90;93884.59;4866686;29;20201;-96
2022/08/28 03:23:27;;;;;;;29.50;22.90;;;;;;;18.87;98.39;93869.44;4860924;29;20225;-96
2022/08/28 03:26:22;;;;;;;30.63;22.60;;;;;;;18.88;97.84;93876.56;4855679;29;20628;-96
2022/08/28 03:29:06;;;;;;;26.77;21.57;;;;;;;18.92;98.22;93883.13;4858422;29;20255;-96
2022/08/28 03:31:54;;;;;;;30.30;22.47;;;;;;;18.78;98.33;93874.03;4833975;29;20261;-96
2022/08/28 03:34:40;;;;;;;31.47;22.50;;;;;;;18.99;97.94;93887.69;4857909;29;20216;-96
2022/08/28 03:37:25;;;;;;;31.08;22.40;;;;;;;19.01;97.88;93877.78;4859939;29;20197;-96
2022/08/28 03:40:10;;;;;;;30.37;22.33;;;;;;;19.06;96.80;93879.38;4828410;29;20202;-96
2022/08/28 03:42:55;;;;;;;34.73;22.23;;;;;;;18.96;97.09;93877.59;4843272;29;20216;-96
2022/08/28 03:45:39;;;;;;;32.33;22.83;;;;;;;18.91;97.18;93878.81;4840497;29;20201;-96
2022/08/28 03:48:32;;;;;;;37.23;22.73;;;;;;;18.98;97.99;93891.88;4843354;29;20274;-96
2022/08/28 03:51:19;;;;;;;32.77;22.20;;;;;;;18.94;98.32;93897.41;4846848;29;20218;-96
2022/08/28 03:54:04;;;;;;;30.73;21.57;;;;;;;18.81;98.47;93889.78;4842126;29;20259;-96
2022/08/28 03:56:50;;;;;;;28.00;22.53;;;;;;;18.77;98.82;93888.88;4850054;29;20206;-96
2022/08/28 03:59:36;;;;;;;30.15;21.95;;;;;;;18.73;99.70;93894.41;4847646;29;20205;-96
2022/08/28 04:02:20;;;;;;;31.23;22.70;;;;;;;18.63;100.00;93888.31;4845575;29;20209;-96
2022/08/28 04:05:05;;;;;;;26.43;21.57;;;;;;;18.85;100.00;93895.63;4846878;29;20213;-96
2022/08/28 04:07:51;;;;;;;32.80;23.33;;;;;;;18.85;98.62;93889.94;4841679;29;20221;-96
2022/08/28 04:10:37;;;;;;;30.60;22.63;;;;;;;18.70;100.00;93904.94;4848034;29;20252;-96
2022/08/28 04:13:22;;;;;;;30.93;21.67;;;;;;;18.84;100.00;93911.19;4836164;29;20215;-96
2022/08/28 04:16:09;;;;;;;31.30;22.23;;;;;;;18.60;100.00;93904.53;4842128;29;20304;-96
2022/08/28 04:18:54;;;;;;;29.20;21.30;;;;;;;18.70;100.00;93902.09;4830871;29;20206;-96
2022/08/28 04:21:38;;;;;;;29.33;21.17;;;;;;;18.58;100.00;93904.44;4838114;29;20216;-95
2022/08/28 04:24:23;;;;;;;35.47;22.13;;;;;;;18.66;100.00;93889.84;4841087;29;20217;-96
2022/08/28 04:27:07;;;;;;;25.57;19.73;;;;;;;18.63;100.00;93903.25;4840226;29;20214;-95
2022/08/28 04:29:52;;;;;;;26.73;19.97;;;;;;;18.58;100.00;93895.94;4840942;29;20213;-95
2022/08/28 04:32:38;;;;;;;25.73;20.03;;;;;;;18.77;99.49;93898.13;4826249;29;20233;-95
2022/08/28 04:35:22;;;;;;;24.37;18.53;;;;;;;18.80;99.06;93899.69;4841565;29;20217;-96
2022/08/28 04:38:07;;;;;;;24.20;18.53;;;;;;;18.63;100.00;93902.50;4832633;29;20244;-96
2022/08/28 04:40:53;;;;;;;23.03;16.97;;;;;;;18.87;100.00;93914.84;4825858;29;20235;-95
2022/08/28 04:43:38;;;;;;;22.83;17.83;;;;;;;18.94;99.20;93914.47;4840350;29;20237;-94
2022/08/28 04:46:24;;;;;;;18.90;14.27;;;;;;;18.71;100.00;93906.41;4836093;29;20204;-95
2022/08/28 04:49:08;;;;;;;9.57;8.33;;;;;;;18.93;100.00;93910.16;4843087;29;20241;-95
2022/08/28 04:51:53;;;;;;;5.90;5.37;;;;;;;18.45;100.00;93905.31;4850052;29;20202;-94
2022/08/28 04:54:37;;;;;;;5.90;5.37;;;;;;;18.43;100.00;93910.88;4858213;29;20295;-95
2022/08/28 04:57:25;;;;;;;8.50;5.57;;;;;;;18.57;100.00;93912.25;4853146;29;20202;-93
2022/08/28 05:00:10;;;;;;;8.67;6.37;;;;;;;18.90;100.00;93908.59;4850945;29;20258;-93
2022/08/28 05:02:55;;;;;;;6.87;6.23;;;;;;;18.99;97.48;93916.06;4842412;29;20222;-94
2022/08/28 05:05:44;;;;;;;10.33;7.00;;;;;;;19.16;95.63;93911.03;4836811;29;20290;-94
2022/08/28 05:08:29;;;;;;;7.43;6.47;;;;;;;19.31;94.94;93910.19;4848167;29;20301;-94
2022/08/28 05:11:20;;;;;;;6.70;5.97;;;;;;;19.26;93.87;93914.25;4841754;29;20301;-94
2022/08/28 05:14:08;;;;;;;7.60;5.10;;;;;;;19.09;95.71;93923.53;4837637;29;20206;-94
2022/08/28 05:16:54;;;;;;;5.40;4.70;;;;;;;19.09;93.53;93915.00;4842690;29;20228;-94
2022/08/28 05:19:38;;;;;;;5.10;4.70;;;;;;;19.11;92.82;93900.88;4841291;29;20233;-96
2022/08/28 05:22:23;;;;;;;5.17;4.67;;;;;;;19.22;92.76;93920.50;4825502;29;20220;-95
2022/08/28 05:25:07;;;;;;;4.50;4.10;;;;;;;19.38;91.56;93914.72;4839704;29;20238;-95
2022/08/28 05:27:52;;;;;;;4.60;4.20;;;;;;;19.33;89.92;93915.94;4846517;29;20921;-94
2022/08/28 05:30:38;;;;;;;4.20;3.80;;;;;;;19.36;90.51;93928.84;4838989;29;20584;-95
2022/08/28 05:33:22;;;;;;;4.20;3.77;;;;;;;19.21;90.54;93921.16;4840157;29;20202;-96
2022/08/28 05:36:07;;;;;;;4.17;3.87;;;;;;;19.23;91.38;93929.75;4843394;29;20217;-95
2022/08/28 05:38:55;;;;;;;4.27;3.87;;;;;;;19.28;91.68;93928.53;4844884;29;20220;-95
2022/08/28 05:41:42;;;;;;;4.43;3.80;;;;;;;19.26;91.05;93943.38;4836136;29;20209;-96
2022/08/28 05:44:31;;;;;;;4.90;4.50;;;;;;;19.16;91.40;93928.06;4840380;29;20277;-95
2022/08/28 08:47:50;;;;;;;5.22;4.72;;;;;;;21.06;81.33;94043.22;4866260;29;20225;-91
2022/08/28 08:50:37;;;;;;;3.72;2.70;;;;;;;20.74;81.31;94047.81;4876396;29;20204;-93
2022/08/28 08:53:34;;;;;;;1.80;1.70;;;;;;;20.77;80.26;94052.16;4868807;29;20276;-92
2022/08/28 08:56:20;;;;;;;2.17;1.98;;;;;;;20.87;80.96;94055.34;4870383;29;20269;-92
2022/08/28 08:59:09;;;;;;;2.78;2.55;;;;;;;20.82;80.79;94048.78;4877774;29;20260;-91
2022/08/28 09:02:17;;;;;;;2.92;2.72;;;;;;;21.01;79.22;94058.72;4855131;29;20210;-92
2022/08/28 09:05:17;;;;;;;7.65;6.45;;;;;;;20.69;80.34;94063.25;4860334;29;20211;-91
2022/08/28 09:08:03;;;;;;;6.10;5.50;;;;;;;20.78;81.15;94062.91;4862523;29;20209;-92
2022/08/28 09:11:06;;;;;;;9.13;8.25;;;;;;;20.62;81.08;94064.44;4862048;29;20252;-92
2022/08/28 09:13:59;;;;;;;13.60;12.30;;;;;;;20.58;81.85;94071.44;4870704;29;20315;-92
2022/08/28 09:16:46;;;;;;;14.60;12.95;;;;;;;20.34;82.14;94075.50;4866707;29;20233;-94
2022/08/28 09:19:31;;;;;;;12.25;10.98;;;;;;;20.41;81.69;94063.72;4868406;29;20231;-88
2022/08/28 09:22:17;;;;;;;9.50;8.37;;;;;;;20.08;80.46;94078.78;4853486;29;20327;-94
2022/08/28 09:25:01;;;;;;;4.80;4.40;;;;;;;19.95;79.75;94076.13;4857327;29;20220;-92
2022/08/28 09:27:46;;;;;;;8.90;5.10;;;;;;;20.01;79.28;94076.38;4843266;29;20259;-93
2022/08/28 09:30:32;;;;;;;6.40;5.80;;;;;;;20.15;79.92;94077.66;4843360;29;20244;-93
2022/08/28 09:33:30;;;;;;;7.78;5.88;;;;;;;20.18;81.64;94076.31;4860461;29;20217;-94
2022/08/28 09:36:31;;;;;;;7.63;6.80;;;;;;;19.88;84.36;94088.66;4880030;29;20268;-93
2022/08/28 09:39:20;;;;;;;7.70;5.90;;;;;;;20.12;82.16;94089.63;4884558;29;20220;-90
2022/08/28 09:45:25;;;;;;;6.40;5.88;;;;;;;19.55;84.07;94098.75;4859106;29;20217;-94
2022/08/28 09:48:20;;;;;;;7.13;6.03;;;;;;;19.39;84.69;94098.03;4847562;29;20278;-93
2022/08/28 09:51:10;;;;;;;7.35;5.00;;;;;;;19.79;82.98;94099.72;4862066;29;20226;-94
2022/08/28 09:54:24;;;;;;;5.20;4.70;;;;;;;19.73;82.30;94096.63;4871836;29;20242;-94
2022/08/28 09:57:10;;;;;;;11.02;4.70;;;;;;;19.66;82.69;94100.63;4854381;29;20211;-91
2022/08/28 09:59:55;;;;;;;8.00;4.80;;;;;;;19.91;82.87;94098.72;4851012;29;20281;-93
2022/08/28 10:02:57;;;;;;;4.88;4.35;;;;;;;20.23;80.80;94097.16;4844277;29;20268;-92
2022/08/28 10:06:00;;;;;;;5.22;4.63;;;;;;;20.42;78.84;94099.34;4844417;29;20235;-93
2022/08/28 10:09:02;;;;;;;5.35;4.88;;;;;;;20.51;79.00;94103.91;4851764;29;20267;-92
2022/08/28 10:11:57;;;;;;;6.37;4.90;;;;;;;20.42;77.33;94099.34;4861959;29;20224;-92
2022/08/28 10:15:02;;;;;;;5.03;4.57;;;;;;;20.32;79.70;94113.16;4851625;29;20224;-93
2022/08/28 10:18:32;;;;;;;7.82;5.15;;;;;;;20.08;81.07;94107.25;4843947;29;20282;-93
2022/08/28 10:21:38;;;;;;;5.70;4.80;;;;;;;20.49;81.21;94115.22;4839114;29;20274;-92
2022/08/28 10:24:33;;;;;;;5.88;5.25;;;;;;;20.78;80.32;94110.59;4855507;29;20276;-93
2022/08/28 10:27:43;;;;;;;7.00;5.28;;;;;;;20.90;78.51;94099.63;4848821;29;20247;-93
2022/08/28 10:30:32;;;;;;;6.82;5.20;;;;;;;20.72;79.75;94104.66;4850064;29;20224;-91
2022/08/28 10:33:35;;;;;;;7.30;5.30;;;;;;;20.66;80.04;94110.16;4852963;29;20236;-93
2022/08/28 10:36:25;;;;;;;6.95;5.85;;;;;;;20.87;79.01;94107.38;4849716;29;20642;-91
2022/08/28 10:39:21;;;;;;;6.50;5.43;;;;;;;21.10;78.03;94111.00;4860391;29;20312;-93
2022/08/28 10:42:06;;;;;;;8.45;5.32;;;;;;;20.81;79.88;94114.97;4859676;29;20251;-94
2022/08/28 10:44:57;;;;;;;7.75;5.43;;;;;;;20.78;81.53;94104.91;4856253;29;20277;-92
2022/08/28 10:47:48;;;;;;;7.40;5.43;;;;;;;20.83;81.87;94107.22;4858295;29;20283;-93
2022/08/28 10:50:46;;;;;;;5.82;5.20;;;;;;;20.91;82.98;94113.22;4862492;29;20236;-93
2022/08/28 10:53:37;;;;;;;6.53;5.93;;;;;;;21.24;78.60;94120.81;4864512;29;20205;-93
2022/08/28 10:56:28;;;;;;;8.43;5.50;;;;;;;21.26;77.56;94112.31;4854737;29;20280;-93
2022/08/28 10:59:12;;;;;;;5.60;5.10;;;;;;;21.29;78.57;94121.69;4865974;29;20820;-94
2022/08/28 11:01:58;;;;;;;5.60;5.13;;;;;;;21.14;80.24;94123.28;4861528;29;20285;-94
2022/08/28 11:04:45;;;;;;;5.47;4.93;;;;;;;21.18;80.13;94129.13;4845669;29;20213;-94
2022/08/28 11:07:35;;;;;;;5.13;4.70;;;;;;;21.02;78.39;94122.84;4865170;29;20287;-92
2022/08/28 11:10:44;;;;;;;7.22;5.22;;;;;;;20.98;80.52;94128.41;4867061;29;20229;-88
2022/08/28 11:13:44;;;;;;;8.75;5.50;;;;;;;21.44;76.64;94131.44;4863870;29;20224;-92
2022/08/28 11:16:28;;;;;;;5.93;5.38;;;;;;;21.92;73.73;94133.03;4850167;29;20221;-92
2022/08/28 11:19:59;;;;;;;7.45;6.03;;;;;;;21.65;74.95;94134.31;4871196;29;20201;-93
2022/08/28 11:23:05;;;;;;;6.35;5.75;;;;;;;21.55;76.86;94141.78;4847913;29;20238;-94
2022/08/28 11:25:53;;;;;;;6.70;6.10;;;;;;;21.79;77.97;94136.91;4875340;29;20242;-92
2022/08/28 11:28:45;;;;;;;6.75;5.97;;;;;;;21.57;76.11;94136.16;4869751;29;20233;-93
2022/08/28 11:31:33;;;;;;;6.93;6.20;;;;;;;22.73;71.70;94144.16;4885328;29;20289;-93
2022/08/28 11:35:15;;;;;;;6.85;6.25;;;;;;;23.08;69.49;94148.75;4871990;29;20217;-92
2022/08/28 11:37:59;;;;;;;6.68;5.95;;;;;;;22.84;67.59;94145.19;4789036;29;20717;-93
2022/08/28 11:40:46;;;;;;;6.75;6.05;;;;;;;22.71;70.34;94144.09;4779607;29;20230;-94
2022/08/28 11:43:34;;;;;;;6.93;6.22;;;;;;;22.54;71.57;94131.44;4855854;29;20209;-94
2022/08/28 11:46:25;;;;;;;7.18;6.07;;;;;;;22.53;72.14;94140.66;4848754;29;20296;-95
2022/08/28 11:49:33;;;;;;;8.13;6.72;;;;;;;22.11;74.81;94142.94;4866495;29;20233;-94
2022/08/28 11:52:47;;;;;;;8.80;7.97;;;;;;;22.44;70.63;94133.28;4822604;29;20287;-95
2022/08/28 11:55:54;;;;;;;10.30;7.68;;;;;;;22.92;72.53;94137.56;4856535;29;20288;-95
2022/08/28 11:59:17;;;;;;;9.77;7.72;;;;;;;21.91;75.56;94145.16;4865815;29;20233;-95
2022/08/28 12:02:39;;;;;;;7.65;6.95;;;;;;;22.82;70.17;94137.28;4861180;29;20269;-91
2022/08/28 12:05:32;;;;;;;10.88;8.27;;;;;;;22.83;68.95;94129.47;4848714;29;20201;-95
2022/08/28 12:08:52;;;;;;;8.45;7.50;;;;;;;22.29;72.37;94139.94;4871770;29;20312;-93
2022/08/28 12:11:38;;;;;;;9.20;8.30;;;;;;;22.31;73.33;94131.44;4851937;29;20216;-95
2022/08/28 12:14:26;;;;;;;8.77;8.00;;;;;;;22.75;73.69;94138.50;4850281;29;20209;-96
2022/08/28 12:17:13;;;;;;;10.65;9.52;;;;;;;23.38;68.64;94125.97;4863372;29;20261;-95
2022/08/28 12:20:09;;;;;;;12.48;10.82;;;;;;;23.32;66.74;94123.69;4876885;29;20208;-95
2022/08/28 12:22:57;;;;;;;10.55;9.48;;;;;;;23.56;65.18;94123.63;4855037;29;20209;-90
2022/08/28 12:25:42;;;;;;;12.68;11.38;;;;;;;23.27;66.87;94133.53;4867156;29;20205;-94
2022/08/28 12:28:37;;;;;;;11.88;10.45;;;;;;;23.09;67.08;94130.19;4864677;29;20752;-96
2022/08/28 12:34:58;;;;;;;11.82;10.73;;;;;;;22.34;70.21;94142.25;4881286;29;20212;-92
2022/08/28 12:38:00;;;;;;;12.10;10.68;;;;;;;21.82;72.30;94132.00;4863184;29;20615;-96
2022/08/28 12:40:52;;;;;;;12.20;10.90;;;;;;;21.86;74.11;94141.41;4878769;29;20228;-94
2022/08/28 12:43:39;;;;;;;14.90;10.85;;;;;;;21.41;77.00;94144.91;4926158;23;21626;-96
2022/08/28 12:46:26;;;;;;;13.07;10.38;;;;;;;21.34;77.13;94146.81;4874128;29;20232;-94
2022/08/28 12:49:35;;;;;;;11.90;9.93;;;;;;;21.19;78.98;94153.41;4890749;29;20200;-96
2022/08/28 12:52:24;;;;;;;11.07;9.98;;;;;;;21.25;82.01;94141.47;4895724;29;20331;-95
2022/08/28 12:55:09;;;;;;;12.40;10.80;;;;;;;21.07;83.67;94158.66;4890423;29;20217;-96
2022/08/28 12:57:54;;;;;;;12.10;10.90;;;;;;;20.89;82.16;94152.28;4860939;29;20203;-96
2022/08/28 13:01:22;;;;;;;11.57;10.40;;;;;;;21.00;80.19;94142.72;4875324;29;20204;-96
2022/08/28 13:04:53;;;;;;;13.30;11.98;;;;;;;21.20;82.79;94154.88;4867195;29;20253;-96
2022/08/28 13:08:11;;;;;;;15.13;11.43;;;;;;;21.23;83.44;94153.53;4896855;29;20235;-96
2022/08/28 13:11:18;;;;;;;15.57;12.40;;;;;;;21.19;82.42;94158.38;4878404;29;20329;-96
2022/08/28 13:14:10;;;;;;;14.30;11.68;;;;;;;21.35;80.41;94151.09;4890190;29;20208;-96
2022/08/28 14:26:46;;;;;;;9.60;8.65;;;;;;;23.89;65.84;94112.97;4874879;29;20256;-96
2022/08/28 14:29:30;;;;;;;8.95;7.85;;;;;;;23.99;64.68;94116.09;4864614;29;20256;-96
2022/08/28 14:32:15;;;;;;;10.30;8.48;;;;;;;22.76;69.39;94128.53;4881399;29;20308;-96
2022/08/28 14:35:01;;;;;;;10.50;8.18;;;;;;;22.90;68.75;94126.06;4876773;29;20221;-94
2022/08/28 14:37:45;;;;;;;10.20;8.68;;;;;;;22.36;69.13;94113.03;4871442;29;20224;-96
2022/08/28 14:40:30;;;;;;;8.68;7.60;;;;;;;22.66;70.37;94113.19;4862675;29;20264;-96
2022/08/28 14:43:14;;;;;;;9.90;7.88;;;;;;;22.94;67.86;94109.06;4852059;29;20206;-96
2022/08/28 14:45:59;;;;;;;10.02;8.43;;;;;;;23.45;63.92;94107.56;4869436;29;20220;-96
2022/08/28 14:48:43;;;;;;;10.15;9.07;;;;;;;23.96;63.02;94106.00;4871091;29;20216;-96
2022/08/28 14:51:30;;;;;;;11.00;9.90;;;;;;;23.67;62.01;94099.56;4878894;29;20216;-95
2022/08/28 14:54:18;;;;;;;11.82;10.68;;;;;;;23.23;65.11;94104.13;4884429;29;20208;-95
2022/08/28 14:57:03;;;;;;;11.65;10.48;;;;;;;23.09;66.10;94112.28;4864942;29;20206;-95
2022/08/28 14:59:48;;;;;;;12.23;10.95;;;;;;;23.45;67.45;94112.56;4895373;29;20188;-96
2022/08/28 15:02:33;;;;;;;10.68;9.40;;;;;;;23.34;64.79;94115.13;4884171;29;20220;-94
2022/08/28 15:05:18;;;;;;;9.73;8.50;;;;;;;22.79;64.66;94109.31;4878361;29;20667;-95
2022/08/28 15:08:08;;;;;;;12.60;9.88;;;;;;;23.35;63.52;94105.16;4868456;29;20722;-96
2022/08/28 15:10:53;;;;;;;12.10;10.05;;;;;;;23.05;65.63;94112.19;4876351;29;20212;-95
2022/08/28 15:13:38;;;;;;;9.95;8.98;;;;;;;22.83;66.30;94110.19;4870248;29;20251;-95
2022/08/28 15:16:32;;;;;;;13.38;9.20;;;;;;;23.50;64.98;94114.88;4865526;29;20205;-96
2022/08/28 15:19:16;;;;;;;12.02;10.15;;;;;;;22.74;65.69;94108.47;4861942;29;20734;-96
2022/08/28 15:22:03;;;;;;;9.15;8.27;;;;;;;24.04;64.50;94124.09;4859786;29;20219;-96
2022/08/28 15:24:47;;;;;;;8.77;7.93;;;;;;;23.10;65.41;94114.47;4866722;29;20699;-95
2022/08/28 15:27:32;;;;;;;10.02;8.77;;;;;;;22.88;66.70;94114.59;4863616;29;20216;-95
2022/08/28 15:30:16;;;;;;;9.55;8.55;;;;;;;23.17;66.20;94113.25;4876164;29;20235;-96
2022/08/28 15:33:01;;;;;;;10.95;8.35;;;;;;;23.10;66.97;94108.03;4864660;29;20241;-95
2022/08/28 15:35:45;;;;;;;9.68;8.43;;;;;;;24.28;62.92;94100.31;4868071;29;20609;-95
2022/08/28 15:41:22;;;;;;;11.02;9.25;;;;;;;23.02;65.72;94105.72;4864662;29;20721;-95
2022/08/28 15:41:36;;;;;;;11.25;8.70;;;;;;;23.54;65.44;94108.53;4862533;29;20292;-95
2022/08/28 15:44:21;;;;;;;8.88;7.93;;;;;;;23.65;64.12;94108.09;4864072;29;20208;-95
2022/08/28 15:47:06;;;;;;;8.52;7.53;;;;;;;23.59;67.81;94104.34;4857078;29;20217;-96
2022/08/28 15:49:54;;;;;;;12.00;7.57;;;;;;;23.51;66.24;94104.16;4849543;29;20248;-95
2022/08/28 15:52:41;;;;;;;8.68;7.88;;;;;;;22.89;67.96;94098.91;4863062;29;20246;-94
2022/08/28 15:55:26;;;;;;;9.10;8.20;;;;;;;23.92;65.34;94103.03;4862973;29;20205;-95
2022/08/28 15:58:11;;;;;;;11.82;7.40;;;;;;;23.09;66.16;94100.84;4871418;29;20209;-94
2022/08/28 16:00:56;;;;;;;7.82;7.03;;;;;;;22.82;67.19;94103.00;4870145;29;20296;-94
2022/08/28 16:03:40;;;;;;;8.35;6.80;;;;;;;23.17;66.91;94101.09;4852033;29;20215;-93
2022/08/28 16:06:25;;;;;;;10.95;8.50;;;;;;;22.60;68.86;94105.91;4862748;29;20213;-94
2022/08/28 16:09:10;;;;;;;8.55;7.75;;;;;;;22.24;70.61;94098.38;4871874;29;20316;-94
2022/08/28 16:11:54;;;;;;;11.30;8.10;;;;;;;22.48;70.53;94099.13;4866083;29;20217;-95
2022/08/28 16:14:39;;;;;;;9.05;8.07;;;;;;;22.66;72.84;94102.50;4863140;29;20212;-95
2022/08/28 16:17:23;;;;;;;9.80;8.10;;;;;;;22.67;71.94;94103.22;4865477;29;20231;-94
2022/08/28 16:20:09;;;;;;;9.10;8.20;;;;;;;21.74;75.14;94106.78;4865716;29;20216;-94
2022/08/28 16:22:53;;;;;;;9.23;8.15;;;;;;;21.85;75.74;94111.41;4859577;29;20220;-94
2022/08/28 16:25:38;;;;;;;9.07;7.63;;;;;;;21.68;76.99;94109.44;4837862;29;20216;-94
2022/08/28 16:28:23;;;;;;;10.05;8.15;;;;;;;21.88;77.62;94104.41;4862048;29;20228;-95
2022/08/28 16:31:08;;;;;;;9.85;8.00;;;;;;;21.62;77.49;94100.69;4874568;29;20299;-95
2022/08/28 16:34:17;;;;;;;8.85;7.82;;;;;;;22.00;76.48;94104.81;4885879;29;20230;-95
2022/08/28 16:37:01;;;;;;;9.13;7.57;;;;;;;21.93;76.72;94110.94;4857205;29;20192;-96
2022/08/28 16:39:45;;;;;;;15.20;7.95;;;;;;;21.87;77.05;94108.63;4835719;29;20679;-95
2022/08/28 16:42:29;;;;;;;9.38;8.48;;;;;;;22.21;76.34;94108.28;4860787;29;20232;-96
2022/08/28 16:45:14;;;;;;;8.75;7.95;;;;;;;22.10;75.06;94107.97;4849177;29;20242;-96
2022/08/28 16:47:59;;;;;;;8.82;8.02;;;;;;;22.16;75.96;94110.28;4868971;29;20216;-94
2022/08/28 16:50:43;;;;;;;11.68;8.32;;;;;;;22.40;74.25;94121.72;4848539;29;20269;-96
2022/08/28 16:53:27;;;;;;;10.75;7.95;;;;;;;22.47;74.15;94114.78;4857888;29;20256;-95
2022/08/28 16:56:13;;;;;;;9.15;8.23;;;;;;;22.20;75.10;94110.41;4861089;29;20208;-94
2022/08/28 16:58:58;;;;;;;10.63;9.63;;;;;;;22.31;74.25;94120.00;4852993;29;20202;-95
2022/08/28 17:01:42;;;;;;;9.18;8.35;;;;;;;22.15;74.17;94120.25;4846377;29;20210;-96
2022/08/28 17:04:26;;;;;;;10.75;8.80;;;;;;;22.16;76.31;94118.84;4836626;29;20231;-94
2022/08/28 17:07:11;;;;;;;8.63;7.72;;;;;;;22.40;75.67;94121.72;4863994;29;20265;-94
2022/08/28 17:09:55;;;;;;;8.85;7.95;;;;;;;22.15;75.56;94125.97;4859079;29;20276;-94
2022/08/28 17:12:40;;;;;;;10.85;7.55;;;;;;;22.06;75.80;94119.25;4859707;29;20309;-95
2022/08/28 17:15:24;;;;;;;9.40;8.05;;;;;;;21.93;75.52;94123.09;4854650;29;20289;-96
2022/08/28 17:18:08;;;;;;;9.32;8.43;;;;;;;21.98;77.10;94129.69;4860676;29;20319;-95
2022/08/28 17:23:58;;;;;;;9.30;8.32;;;;;;;22.01;74.78;94131.94;4844268;29;20261;-94
2022/08/28 17:26:43;;;;;;;8.30;7.45;;;;;;;21.88;76.85;94144.34;4858764;29;20216;-94
2022/08/28 17:29:27;;;;;;;8.57;7.50;;;;;;;21.87;76.01;94134.31;4865877;29;20308;-93
2022/08/28 17:32:13;;;;;;;12.38;7.97;;;;;;;21.96;76.18;94141.06;4837309;29;20284;-94